sensor_id;sensor_type;location;lat;lon;timestamp;P1;durP1;ratioP1;P2;durP2;ratioP2
59189;SDS011;50749;51.636;4.948;2023-03-14T00:01:56;4.53;;;1.30;;
59189;SDS011;50749;51.636;4.948;2023-03-14T00:04:23;7.43;;;1.40;;
59189;SDS011;50749;51.636;4.948;2023-03-14T00:06:48;4.50;;;1.25;;
59189;SDS011;50749;51.636;4.948;2023-03-14T00:09:16;3.35;;;1.00;;
59189;SDS011;50749;51.636;4.948;2023-03-14T00:11:42;5.22;;;1.40;;
59189;SDS011;50749;51.636;4.948;2023-03-14T00:14:08;4.50;;;1.27;;
59189;SDS011;50749;51.636;4.948;2023-03-14T00:16:34;2.28;;;0.90;;
59189;SDS011;50749;51.636;4.948;2023-03-14T00:19:00;4.90;;;1.38;;
59189;SDS011;50749;51.636;4.948;2023-03-14T00:21:26;4.80;;;1.85;;
59189;SDS011;50749;51.636;4.948;2023-03-14T00:23:52;4.15;;;1.42;;
59189;SDS011;50749;51.636;4.948;2023-03-14T00:26:19;7.03;;;1.25;;
59189;SDS011;50749;51.636;4.948;2023-03-14T00:28:46;3.92;;;1.30;;
59189;SDS011;50749;51.636;4.948;2023-03-14T00:31:16;5.95;;;1.15;;
59189;SDS011;50749;51.636;4.948;2023-03-14T00:33:42;2.20;;;0.90;;
59189;SDS011;50749;51.636;4.948;2023-03-14T00:36:09;2.78;;;0.90;;
59189;SDS011;50749;51.636;4.948;2023-03-14T00:38:40;4.35;;;1.00;;
59189;SDS011;50749;51.636;4.948;2023-03-14T00:41:08;5.20;;;1.50;;
59189;SDS011;50749;51.636;4.948;2023-03-14T00:43:36;5.00;;;1.48;;
59189;SDS011;50749;51.636;4.948;2023-03-14T00:46:02;6.57;;;0.90;;
59189;SDS011;50749;51.636;4.948;2023-03-14T00:48:29;2.80;;;0.98;;
59189;SDS011;50749;51.636;4.948;2023-03-14T00:50:55;5.18;;;1.20;;
59189;SDS011;50749;51.636;4.948;2023-03-14T00:53:21;4.47;;;1.08;;
59189;SDS011;50749;51.636;4.948;2023-03-14T00:55:47;5.05;;;1.20;;
59189;SDS011;50749;51.636;4.948;2023-03-14T00:58:14;4.03;;;1.27;;
59189;SDS011;50749;51.636;4.948;2023-03-14T01:00:41;3.58;;;1.13;;
59189;SDS011;50749;51.636;4.948;2023-03-14T01:03:08;2.78;;;1.40;;
59189;SDS011;50749;51.636;4.948;2023-03-14T01:05:34;1.58;;;0.88;;
59189;SDS011;50749;51.636;4.948;2023-03-14T01:08:00;5.03;;;1.40;;
59189;SDS011;50749;51.636;4.948;2023-03-14T01:10:26;5.82;;;1.10;;
59189;SDS011;50749;51.636;4.948;2023-03-14T01:12:52;5.32;;;0.95;;
59189;SDS011;50749;51.636;4.948;2023-03-14T01:15:18;2.60;;;0.75;;
59189;SDS011;50749;51.636;4.948;2023-03-14T01:17:45;2.88;;;0.75;;
59189;SDS011;50749;51.636;4.948;2023-03-14T01:20:11;4.57;;;0.88;;
59189;SDS011;50749;51.636;4.948;2023-03-14T01:22:39;3.72;;;0.90;;
59189;SDS011;50749;51.636;4.948;2023-03-14T01:25:06;5.70;;;1.50;;
59189;SDS011;50749;51.636;4.948;2023-03-14T01:27:34;5.30;;;1.80;;
59189;SDS011;50749;51.636;4.948;2023-03-14T01:30:00;3.90;;;0.93;;
59189;SDS011;50749;51.636;4.948;2023-03-14T01:32:26;3.22;;;0.90;;
59189;SDS011;50749;51.636;4.948;2023-03-14T01:34:51;2.35;;;0.90;;
59189;SDS011;50749;51.636;4.948;2023-03-14T01:37:17;3.00;;;1.08;;
59189;SDS011;50749;51.636;4.948;2023-03-14T01:39:43;5.32;;;1.13;;
59189;SDS011;50749;51.636;4.948;2023-03-14T01:42:09;2.95;;;0.80;;
59189;SDS011;50749;51.636;4.948;2023-03-14T01:44:51;4.03;;;1.10;;
59189;SDS011;50749;51.636;4.948;2023-03-14T01:47:18;2.92;;;1.00;;
59189;SDS011;50749;51.636;4.948;2023-03-14T01:49:45;4.80;;;1.08;;
59189;SDS011;50749;51.636;4.948;2023-03-14T01:52:16;4.18;;;1.20;;
59189;SDS011;50749;51.636;4.948;2023-03-14T01:57:36;3.58;;;0.77;;
59189;SDS011;50749;51.636;4.948;2023-03-14T02:00:09;4.82;;;0.88;;
59189;SDS011;50749;51.636;4.948;2023-03-14T02:02:42;4.28;;;0.98;;
59189;SDS011;50749;51.636;4.948;2023-03-14T02:05:11;3.92;;;0.90;;
59189;SDS011;50749;51.636;4.948;2023-03-14T02:07:49;2.47;;;0.85;;
59189;SDS011;50749;51.636;4.948;2023-03-14T02:10:18;3.25;;;1.10;;
59189;SDS011;50749;51.636;4.948;2023-03-14T02:12:48;4.50;;;0.82;;
59189;SDS011;50749;51.636;4.948;2023-03-14T02:15:15;3.92;;;0.82;;
59189;SDS011;50749;51.636;4.948;2023-03-14T02:17:42;5.05;;;0.90;;
59189;SDS011;50749;51.636;4.948;2023-03-14T02:20:15;2.78;;;1.02;;
59189;SDS011;50749;51.636;4.948;2023-03-14T02:23:03;2.95;;;0.80;;
59189;SDS011;50749;51.636;4.948;2023-03-14T02:28:11;4.28;;;0.98;;
59189;SDS011;50749;51.636;4.948;2023-03-14T02:30:38;2.17;;;0.65;;
59189;SDS011;50749;51.636;4.948;2023-03-14T02:33:05;4.15;;;0.93;;
59189;SDS011;50749;51.636;4.948;2023-03-14T02:35:39;2.65;;;0.80;;
59189;SDS011;50749;51.636;4.948;2023-03-14T02:40:51;4.20;;;1.00;;
59189;SDS011;50749;51.636;4.948;2023-03-14T02:43:17;5.90;;;1.00;;
59189;SDS011;50749;51.636;4.948;2023-03-14T02:45:45;4.22;;;1.08;;
59189;SDS011;50749;51.636;4.948;2023-03-14T02:48:16;1.63;;;0.70;;
59189;SDS011;50749;51.636;4.948;2023-03-14T02:50:46;2.83;;;0.80;;
59189;SDS011;50749;51.636;4.948;2023-03-14T02:53:16;3.20;;;0.82;;
59189;SDS011;50749;51.636;4.948;2023-03-14T02:55:47;2.10;;;0.98;;
59189;SDS011;50749;51.636;4.948;2023-03-14T02:58:14;3.45;;;0.80;;
59189;SDS011;50749;51.636;4.948;2023-03-14T03:00:40;2.75;;;0.85;;
59189;SDS011;50749;51.636;4.948;2023-03-14T03:03:06;3.72;;;1.05;;
59189;SDS011;50749;51.636;4.948;2023-03-14T03:05:32;5.97;;;0.80;;
59189;SDS011;50749;51.636;4.948;2023-03-14T03:07:58;1.45;;;0.60;;
59189;SDS011;50749;51.636;4.948;2023-03-14T03:10:24;3.17;;;0.65;;
59189;SDS011;50749;51.636;4.948;2023-03-14T03:12:50;2.47;;;0.75;;
59189;SDS011;50749;51.636;4.948;2023-03-14T03:15:16;2.38;;;0.70;;
59189;SDS011;50749;51.636;4.948;2023-03-14T03:17:43;1.58;;;0.70;;
59189;SDS011;50749;51.636;4.948;2023-03-14T03:20:08;3.25;;;0.80;;
59189;SDS011;50749;51.636;4.948;2023-03-14T03:22:36;1.98;;;0.60;;
59189;SDS011;50749;51.636;4.948;2023-03-14T03:25:06;2.10;;;0.70;;
59189;SDS011;50749;51.636;4.948;2023-03-14T03:27:34;4.45;;;0.80;;
59189;SDS011;50749;51.636;4.948;2023-03-14T03:30:00;3.15;;;1.27;;
59189;SDS011;50749;51.636;4.948;2023-03-14T03:32:27;6.70;;;0.70;;
59189;SDS011;50749;51.636;4.948;2023-03-14T03:34:52;2.60;;;0.77;;
59189;SDS011;50749;51.636;4.948;2023-03-14T03:37:18;2.90;;;1.00;;
59189;SDS011;50749;51.636;4.948;2023-03-14T03:39:44;1.63;;;0.75;;
59189;SDS011;50749;51.636;4.948;2023-03-14T03:42:10;2.17;;;0.70;;
59189;SDS011;50749;51.636;4.948;2023-03-14T03:44:36;4.53;;;1.00;;
59189;SDS011;50749;51.636;4.948;2023-03-14T03:47:02;3.90;;;0.98;;
59189;SDS011;50749;51.636;4.948;2023-03-14T03:49:31;3.10;;;1.00;;
59189;SDS011;50749;51.636;4.948;2023-03-14T03:51:58;1.67;;;0.50;;
59189;SDS011;50749;51.636;4.948;2023-03-14T03:54:24;2.40;;;0.80;;
59189;SDS011;50749;51.636;4.948;2023-03-14T03:56:50;2.47;;;0.65;;
59189;SDS011;50749;51.636;4.948;2023-03-14T03:59:16;2.45;;;0.85;;
59189;SDS011;50749;51.636;4.948;2023-03-14T04:01:42;3.45;;;0.80;;
59189;SDS011;50749;51.636;4.948;2023-03-14T04:04:08;2.75;;;0.90;;
59189;SDS011;50749;51.636;4.948;2023-03-14T04:06:34;4.03;;;1.02;;
59189;SDS011;50749;51.636;4.948;2023-03-14T04:09:02;3.22;;;0.80;;
59189;SDS011;50749;51.636;4.948;2023-03-14T04:11:28;2.78;;;0.70;;
59189;SDS011;50749;51.636;4.948;2023-03-14T04:13:54;2.75;;;0.80;;
59189;SDS011;50749;51.636;4.948;2023-03-14T04:16:21;1.67;;;0.60;;
59189;SDS011;50749;51.636;4.948;2023-03-14T04:18:49;3.35;;;0.60;;
59189;SDS011;50749;51.636;4.948;2023-03-14T04:21:15;5.18;;;0.68;;
59189;SDS011;50749;51.636;4.948;2023-03-14T04:23:41;2.80;;;0.82;;
59189;SDS011;50749;51.636;4.948;2023-03-14T04:26:07;4.85;;;0.93;;
59189;SDS011;50749;51.636;4.948;2023-03-14T04:28:32;1.95;;;1.00;;
59189;SDS011;50749;51.636;4.948;2023-03-14T04:31:06;2.28;;;0.60;;
59189;SDS011;50749;51.636;4.948;2023-03-14T04:33:33;1.75;;;0.45;;
59189;SDS011;50749;51.636;4.948;2023-03-14T04:35:59;3.72;;;0.77;;
59189;SDS011;50749;51.636;4.948;2023-03-14T04:38:25;2.72;;;0.95;;
59189;SDS011;50749;51.636;4.948;2023-03-14T04:40:51;2.25;;;0.70;;
59189;SDS011;50749;51.636;4.948;2023-03-14T04:43:17;2.40;;;0.70;;
59189;SDS011;50749;51.636;4.948;2023-03-14T04:45:43;1.95;;;0.65;;
59189;SDS011;50749;51.636;4.948;2023-03-14T04:48:08;1.85;;;0.40;;
59189;SDS011;50749;51.636;4.948;2023-03-14T04:50:34;2.67;;;0.93;;
59189;SDS011;50749;51.636;4.948;2023-03-14T04:53:01;1.60;;;0.50;;
59189;SDS011;50749;51.636;4.948;2023-03-14T04:55:27;2.08;;;0.85;;
59189;SDS011;50749;51.636;4.948;2023-03-14T04:57:52;2.38;;;0.60;;
59189;SDS011;50749;51.636;4.948;2023-03-14T05:00:18;2.78;;;0.70;;
59189;SDS011;50749;51.636;4.948;2023-03-14T05:02:44;1.58;;;0.50;;
59189;SDS011;50749;51.636;4.948;2023-03-14T05:05:11;2.13;;;0.70;;
59189;SDS011;50749;51.636;4.948;2023-03-14T05:07:37;1.70;;;0.60;;
59189;SDS011;50749;51.636;4.948;2023-03-14T05:10:03;1.83;;;0.63;;
59189;SDS011;50749;51.636;4.948;2023-03-14T05:12:29;1.67;;;0.40;;
59189;SDS011;50749;51.636;4.948;2023-03-14T05:14:55;1.27;;;0.52;;
59189;SDS011;50749;51.636;4.948;2023-03-14T05:17:20;3.10;;;0.60;;
59189;SDS011;50749;51.636;4.948;2023-03-14T05:19:46;3.53;;;0.50;;
59189;SDS011;50749;51.636;4.948;2023-03-14T05:22:12;2.88;;;0.55;;
59189;SDS011;50749;51.636;4.948;2023-03-14T05:24:38;1.42;;;0.55;;
59189;SDS011;50749;51.636;4.948;2023-03-14T05:27:04;1.17;;;0.55;;
59189;SDS011;50749;51.636;4.948;2023-03-14T05:29:30;2.13;;;0.40;;
59189;SDS011;50749;51.636;4.948;2023-03-14T05:31:56;0.65;;;0.40;;
59189;SDS011;50749;51.636;4.948;2023-03-14T05:34:22;1.77;;;0.60;;
59189;SDS011;50749;51.636;4.948;2023-03-14T05:36:48;2.42;;;0.70;;
59189;SDS011;50749;51.636;4.948;2023-03-14T05:39:14;1.55;;;0.65;;
59189;SDS011;50749;51.636;4.948;2023-03-14T05:41:39;2.58;;;0.50;;
59189;SDS011;50749;51.636;4.948;2023-03-14T05:44:05;3.83;;;0.55;;
59189;SDS011;50749;51.636;4.948;2023-03-14T05:46:31;0.70;;;0.40;;
59189;SDS011;50749;51.636;4.948;2023-03-14T05:48:57;1.35;;;0.60;;
59189;SDS011;50749;51.636;4.948;2023-03-14T05:51:24;2.65;;;0.68;;
59189;SDS011;50749;51.636;4.948;2023-03-14T05:53:50;1.70;;;0.90;;
59189;SDS011;50749;51.636;4.948;2023-03-14T05:56:16;1.73;;;0.98;;
59189;SDS011;50749;51.636;4.948;2023-03-14T05:58:42;2.13;;;0.88;;
59189;SDS011;50749;51.636;4.948;2023-03-14T06:01:08;1.80;;;0.70;;
59189;SDS011;50749;51.636;4.948;2023-03-14T06:03:34;1.05;;;0.70;;
59189;SDS011;50749;51.636;4.948;2023-03-14T06:06:00;4.18;;;1.10;;
59189;SDS011;50749;51.636;4.948;2023-03-14T06:08:26;2.83;;;0.65;;
59189;SDS011;50749;51.636;4.948;2023-03-14T06:10:53;2.47;;;0.77;;
59189;SDS011;50749;51.636;4.948;2023-03-14T06:13:19;1.65;;;0.73;;
59189;SDS011;50749;51.636;4.948;2023-03-14T06:15:45;2.20;;;0.63;;
59189;SDS011;50749;51.636;4.948;2023-03-14T06:18:11;1.92;;;0.63;;
59189;SDS011;50749;51.636;4.948;2023-03-14T06:20:37;2.10;;;0.70;;
59189;SDS011;50749;51.636;4.948;2023-03-14T06:23:05;1.40;;;0.60;;
59189;SDS011;50749;51.636;4.948;2023-03-14T06:25:31;0.70;;;0.45;;
59189;SDS011;50749;51.636;4.948;2023-03-14T06:27:59;3.58;;;0.60;;
59189;SDS011;50749;51.636;4.948;2023-03-14T06:30:24;1.08;;;0.52;;
59189;SDS011;50749;51.636;4.948;2023-03-14T06:32:50;2.10;;;0.32;;
59189;SDS011;50749;51.636;4.948;2023-03-14T06:35:16;2.20;;;0.57;;
59189;SDS011;50749;51.636;4.948;2023-03-14T06:37:42;1.73;;;0.52;;
59189;SDS011;50749;51.636;4.948;2023-03-14T06:40:09;0.65;;;0.28;;
59189;SDS011;50749;51.636;4.948;2023-03-14T06:42:36;3.08;;;0.75;;
59189;SDS011;50749;51.636;4.948;2023-03-14T06:45:02;1.85;;;0.52;;
59189;SDS011;50749;51.636;4.948;2023-03-14T06:47:28;1.92;;;0.57;;
59189;SDS011;50749;51.636;4.948;2023-03-14T06:49:54;1.60;;;0.70;;
59189;SDS011;50749;51.636;4.948;2023-03-14T06:52:20;1.05;;;0.70;;
59189;SDS011;50749;51.636;4.948;2023-03-14T06:54:45;1.10;;;0.55;;
59189;SDS011;50749;51.636;4.948;2023-03-14T06:57:11;1.35;;;0.75;;
59189;SDS011;50749;51.636;4.948;2023-03-14T06:59:37;1.20;;;0.45;;
59189;SDS011;50749;51.636;4.948;2023-03-14T07:02:03;1.58;;;0.70;;
59189;SDS011;50749;51.636;4.948;2023-03-14T07:04:29;0.80;;;0.40;;
59189;SDS011;50749;51.636;4.948;2023-03-14T07:06:55;1.20;;;0.60;;
59189;SDS011;50749;51.636;4.948;2023-03-14T07:09:20;0.65;;;0.43;;
59189;SDS011;50749;51.636;4.948;2023-03-14T07:11:46;1.27;;;0.77;;
59189;SDS011;50749;51.636;4.948;2023-03-14T07:14:12;2.33;;;0.70;;
59189;SDS011;50749;51.636;4.948;2023-03-14T07:16:38;1.55;;;0.60;;
59189;SDS011;50749;51.636;4.948;2023-03-14T07:19:04;0.75;;;0.40;;
59189;SDS011;50749;51.636;4.948;2023-03-14T07:21:30;1.75;;;0.77;;
59189;SDS011;50749;51.636;4.948;2023-03-14T07:23:57;0.50;;;0.30;;
59189;SDS011;50749;51.636;4.948;2023-03-14T07:26:23;1.17;;;0.50;;
59189;SDS011;50749;51.636;4.948;2023-03-14T07:28:48;2.03;;;0.50;;
59189;SDS011;50749;51.636;4.948;2023-03-14T07:31:14;1.73;;;0.60;;
59189;SDS011;50749;51.636;4.948;2023-03-14T07:33:40;2.40;;;0.73;;
59189;SDS011;50749;51.636;4.948;2023-03-14T07:36:06;1.65;;;0.50;;
59189;SDS011;50749;51.636;4.948;2023-03-14T07:38:32;2.75;;;0.50;;
59189;SDS011;50749;51.636;4.948;2023-03-14T07:41:03;1.55;;;0.50;;
59189;SDS011;50749;51.636;4.948;2023-03-14T07:43:30;1.33;;;0.60;;
59189;SDS011;50749;51.636;4.948;2023-03-14T07:45:56;1.88;;;0.60;;
59189;SDS011;50749;51.636;4.948;2023-03-14T07:48:22;0.98;;;0.52;;
59189;SDS011;50749;51.636;4.948;2023-03-14T07:50:50;1.45;;;0.55;;
59189;SDS011;50749;51.636;4.948;2023-03-14T07:53:17;1.20;;;0.50;;
59189;SDS011;50749;51.636;4.948;2023-03-14T07:55:44;1.15;;;0.57;;
59189;SDS011;50749;51.636;4.948;2023-03-14T07:58:10;1.17;;;0.50;;
59189;SDS011;50749;51.636;4.948;2023-03-14T08:00:36;0.55;;;0.35;;
59189;SDS011;50749;51.636;4.948;2023-03-14T08:03:03;3.78;;;0.85;;
59189;SDS011;50749;51.636;4.948;2023-03-14T08:05:29;3.08;;;0.57;;
59189;SDS011;50749;51.636;4.948;2023-03-14T08:07:54;1.45;;;0.52;;
59189;SDS011;50749;51.636;4.948;2023-03-14T08:10:20;1.30;;;0.60;;
59189;SDS011;50749;51.636;4.948;2023-03-14T08:12:56;3.13;;;0.50;;
59189;SDS011;50749;51.636;4.948;2023-03-14T08:15:24;2.17;;;0.60;;
59189;SDS011;50749;51.636;4.948;2023-03-14T08:17:51;3.97;;;0.57;;
59189;SDS011;50749;51.636;4.948;2023-03-14T08:20:22;1.40;;;0.40;;
59189;SDS011;50749;51.636;4.948;2023-03-14T08:22:50;1.13;;;0.40;;
59189;SDS011;50749;51.636;4.948;2023-03-14T08:25:17;2.30;;;0.50;;
59189;SDS011;50749;51.636;4.948;2023-03-14T08:27:43;4.93;;;0.68;;
59189;SDS011;50749;51.636;4.948;2023-03-14T08:30:10;0.85;;;0.32;;
59189;SDS011;50749;51.636;4.948;2023-03-14T08:32:37;3.42;;;0.50;;
59189;SDS011;50749;51.636;4.948;2023-03-14T08:35:04;2.58;;;0.45;;
59189;SDS011;50749;51.636;4.948;2023-03-14T08:37:31;0.22;;;0.22;;
59189;SDS011;50749;51.636;4.948;2023-03-14T08:39:58;3.13;;;0.50;;
59189;SDS011;50749;51.636;4.948;2023-03-14T08:42:24;2.22;;;0.43;;
59189;SDS011;50749;51.636;4.948;2023-03-14T08:44:51;1.58;;;0.38;;
59189;SDS011;50749;51.636;4.948;2023-03-14T08:47:17;1.75;;;0.50;;
59189;SDS011;50749;51.636;4.948;2023-03-14T08:49:43;1.05;;;0.50;;
59189;SDS011;50749;51.636;4.948;2023-03-14T08:52:08;4.78;;;0.63;;
59189;SDS011;50749;51.636;4.948;2023-03-14T08:54:34;1.83;;;0.47;;
59189;SDS011;50749;51.636;4.948;2023-03-14T08:57:00;0.85;;;0.40;;
59189;SDS011;50749;51.636;4.948;2023-03-14T08:59:26;1.35;;;0.75;;
59189;SDS011;50749;51.636;4.948;2023-03-14T09:01:52;1.33;;;0.43;;
59189;SDS011;50749;51.636;4.948;2023-03-14T09:04:20;1.65;;;0.50;;
59189;SDS011;50749;51.636;4.948;2023-03-14T09:06:46;0.85;;;0.52;;
59189;SDS011;50749;51.636;4.948;2023-03-14T09:09:12;0.50;;;0.40;;
59189;SDS011;50749;51.636;4.948;2023-03-14T09:11:39;1.48;;;0.50;;
59189;SDS011;50749;51.636;4.948;2023-03-14T09:14:05;2.45;;;0.40;;
59189;SDS011;50749;51.636;4.948;2023-03-14T09:16:32;3.00;;;0.50;;
59189;SDS011;50749;51.636;4.948;2023-03-14T09:18:59;1.80;;;0.50;;
59189;SDS011;50749;51.636;4.948;2023-03-14T09:21:28;0.85;;;0.47;;
59189;SDS011;50749;51.636;4.948;2023-03-14T09:23:54;1.35;;;0.40;;
59189;SDS011;50749;51.636;4.948;2023-03-14T09:26:19;1.20;;;0.32;;
59189;SDS011;50749;51.636;4.948;2023-03-14T09:28:45;1.45;;;0.50;;
59189;SDS011;50749;51.636;4.948;2023-03-14T09:31:11;1.58;;;0.43;;
59189;SDS011;50749;51.636;4.948;2023-03-14T09:33:38;2.38;;;0.35;;
59189;SDS011;50749;51.636;4.948;2023-03-14T09:36:04;0.57;;;0.40;;
59189;SDS011;50749;51.636;4.948;2023-03-14T09:38:31;1.02;;;0.30;;
59189;SDS011;50749;51.636;4.948;2023-03-14T09:40:59;3.70;;;0.60;;
59189;SDS011;50749;51.636;4.948;2023-03-14T09:43:28;1.50;;;0.40;;
59189;SDS011;50749;51.636;4.948;2023-03-14T09:45:57;1.88;;;0.70;;
59189;SDS011;50749;51.636;4.948;2023-03-14T09:48:29;1.30;;;0.43;;
59189;SDS011;50749;51.636;4.948;2023-03-14T09:50:58;3.08;;;0.68;;
59189;SDS011;50749;51.636;4.948;2023-03-14T09:53:39;1.35;;;0.45;;
59189;SDS011;50749;51.636;4.948;2023-03-14T09:56:12;1.63;;;0.45;;
59189;SDS011;50749;51.636;4.948;2023-03-14T09:58:51;2.30;;;0.50;;
59189;SDS011;50749;51.636;4.948;2023-03-14T10:01:28;0.68;;;0.47;;
59189;SDS011;50749;51.636;4.948;2023-03-14T10:03:58;4.35;;;0.70;;
59189;SDS011;50749;51.636;4.948;2023-03-14T10:06:31;2.42;;;0.43;;
59189;SDS011;50749;51.636;4.948;2023-03-14T10:08:58;4.15;;;1.08;;
59189;SDS011;50749;51.636;4.948;2023-03-14T10:11:24;4.15;;;0.50;;
59189;SDS011;50749;51.636;4.948;2023-03-14T10:14:12;2.65;;;0.50;;
59189;SDS011;50749;51.636;4.948;2023-03-14T10:16:42;2.50;;;0.38;;
59189;SDS011;50749;51.636;4.948;2023-03-14T10:19:10;2.08;;;0.77;;
59189;SDS011;50749;51.636;4.948;2023-03-14T10:21:39;3.50;;;0.63;;
59189;SDS011;50749;51.636;4.948;2023-03-14T10:24:20;1.95;;;0.40;;
59189;SDS011;50749;51.636;4.948;2023-03-14T10:27:01;0.77;;;0.32;;
59189;SDS011;50749;51.636;4.948;2023-03-14T10:29:30;1.77;;;0.52;;
59189;SDS011;50749;51.636;4.948;2023-03-14T10:31:59;2.63;;;0.45;;
59189;SDS011;50749;51.636;4.948;2023-03-14T10:34:31;1.75;;;0.68;;
59189;SDS011;50749;51.636;4.948;2023-03-14T10:37:05;2.60;;;0.60;;
59189;SDS011;50749;51.636;4.948;2023-03-14T10:39:53;1.25;;;0.43;;
59189;SDS011;50749;51.636;4.948;2023-03-14T10:44:58;5.63;;;0.50;;
59189;SDS011;50749;51.636;4.948;2023-03-14T10:47:31;1.55;;;0.40;;
59189;SDS011;50749;51.636;4.948;2023-03-14T10:49:58;1.80;;;0.40;;
59189;SDS011;50749;51.636;4.948;2023-03-14T10:52:48;1.05;;;0.88;;
59189;SDS011;50749;51.636;4.948;2023-03-14T10:55:16;2.55;;;0.47;;
59189;SDS011;50749;51.636;4.948;2023-03-14T10:57:42;5.85;;;0.90;;
59189;SDS011;50749;51.636;4.948;2023-03-14T11:00:19;1.65;;;0.45;;
59189;SDS011;50749;51.636;4.948;2023-03-14T11:05:28;3.72;;;0.60;;
59189;SDS011;50749;51.636;4.948;2023-03-14T11:08:07;1.42;;;0.50;;
59189;SDS011;50749;51.636;4.948;2023-03-14T11:10:40;2.15;;;0.60;;
59189;SDS011;50749;51.636;4.948;2023-03-14T11:13:19;1.45;;;0.60;;
59189;SDS011;50749;51.636;4.948;2023-03-14T11:15:57;4.15;;;0.88;;
59189;SDS011;50749;51.636;4.948;2023-03-14T11:21:20;1.55;;;0.60;;
59189;SDS011;50749;51.636;4.948;2023-03-14T11:27:15;2.67;;;0.80;;
59189;SDS011;50749;51.636;4.948;2023-03-14T11:35:21;3.35;;;0.52;;
59189;SDS011;50749;51.636;4.948;2023-03-14T11:37:54;4.25;;;0.82;;
59189;SDS011;50749;51.636;4.948;2023-03-14T11:40:25;2.63;;;0.70;;
59189;SDS011;50749;51.636;4.948;2023-03-14T11:43:06;2.25;;;0.70;;
59189;SDS011;50749;51.636;4.948;2023-03-14T11:45:35;5.47;;;1.55;;
59189;SDS011;50749;51.636;4.948;2023-03-14T11:48:13;7.13;;;1.27;;
59189;SDS011;50749;51.636;4.948;2023-03-14T11:50:59;5.80;;;2.25;;
59189;SDS011;50749;51.636;4.948;2023-03-14T11:56:09;7.38;;;3.65;;
59189;SDS011;50749;51.636;4.948;2023-03-14T11:58:50;6.50;;;3.72;;
59189;SDS011;50749;51.636;4.948;2023-03-14T12:01:20;8.57;;;4.38;;
59189;SDS011;50749;51.636;4.948;2023-03-14T12:03:58;10.10;;;5.55;;
59189;SDS011;50749;51.636;4.948;2023-03-14T12:09:10;7.07;;;3.65;;
59189;SDS011;50749;51.636;4.948;2023-03-14T12:14:17;11.07;;;4.05;;
59189;SDS011;50749;51.636;4.948;2023-03-14T12:16:46;7.72;;;3.72;;
59189;SDS011;50749;51.636;4.948;2023-03-14T12:19:35;11.23;;;3.95;;
59189;SDS011;50749;51.636;4.948;2023-03-14T12:22:21;6.50;;;3.75;;
59189;SDS011;50749;51.636;4.948;2023-03-14T12:24:53;6.88;;;3.53;;
59189;SDS011;50749;51.636;4.948;2023-03-14T12:30:49;8.90;;;4.00;;
59189;SDS011;50749;51.636;4.948;2023-03-14T12:43:27;5.53;;;3.70;;
59189;SDS011;50749;51.636;4.948;2023-03-14T12:48:37;7.57;;;3.22;;
59189;SDS011;50749;51.636;4.948;2023-03-14T12:51:20;7.28;;;3.85;;
59189;SDS011;50749;51.636;4.948;2023-03-14T13:02:14;12.25;;;6.90;;
59189;SDS011;50749;51.636;4.948;2023-03-14T13:12:37;10.30;;;5.72;;
59189;SDS011;50749;51.636;4.948;2023-03-14T13:15:23;10.90;;;6.35;;
59189;SDS011;50749;51.636;4.948;2023-03-14T13:17:53;9.98;;;6.35;;
59189;SDS011;50749;51.636;4.948;2023-03-14T13:20:29;10.60;;;4.95;;
59189;SDS011;50749;51.636;4.948;2023-03-14T13:22:57;9.32;;;4.78;;
59189;SDS011;50749;51.636;4.948;2023-03-14T13:25:23;9.38;;;4.85;;
59189;SDS011;50749;51.636;4.948;2023-03-14T13:27:52;6.43;;;5.00;;
59189;SDS011;50749;51.636;4.948;2023-03-14T13:30:23;10.82;;;4.95;;
59189;SDS011;50749;51.636;4.948;2023-03-14T13:32:50;8.45;;;5.13;;
59189;SDS011;50749;51.636;4.948;2023-03-14T13:35:18;8.02;;;5.20;;
59189;SDS011;50749;51.636;4.948;2023-03-14T13:37:46;8.38;;;3.95;;
59189;SDS011;50749;51.636;4.948;2023-03-14T13:40:18;6.90;;;4.55;;
59189;SDS011;50749;51.636;4.948;2023-03-14T13:42:45;7.82;;;4.60;;
59189;SDS011;50749;51.636;4.948;2023-03-14T13:45:12;7.22;;;4.07;;
59189;SDS011;50749;51.636;4.948;2023-03-14T13:47:39;11.20;;;4.30;;
59189;SDS011;50749;51.636;4.948;2023-03-14T13:50:11;9.13;;;4.72;;
59189;SDS011;50749;51.636;4.948;2023-03-14T13:52:40;7.25;;;3.90;;
59189;SDS011;50749;51.636;4.948;2023-03-14T13:55:13;6.70;;;3.65;;
59189;SDS011;50749;51.636;4.948;2023-03-14T13:57:47;5.70;;;3.83;;
59189;SDS011;50749;51.636;4.948;2023-03-14T14:00:23;9.55;;;3.70;;
59189;SDS011;50749;51.636;4.948;2023-03-14T14:02:56;6.80;;;4.10;;
59189;SDS011;50749;51.636;4.948;2023-03-14T14:05:25;6.25;;;3.92;;
59189;SDS011;50749;51.636;4.948;2023-03-14T14:07:53;6.47;;;3.70;;
59189;SDS011;50749;51.636;4.948;2023-03-14T14:10:20;5.97;;;3.90;;
59189;SDS011;50749;51.636;4.948;2023-03-14T14:12:48;7.60;;;3.70;;
59189;SDS011;50749;51.636;4.948;2023-03-14T14:15:23;8.63;;;3.70;;
59189;SDS011;50749;51.636;4.948;2023-03-14T14:17:53;7.93;;;3.17;;
59189;SDS011;50749;51.636;4.948;2023-03-14T14:20:30;7.25;;;3.35;;
59189;SDS011;50749;51.636;4.948;2023-03-14T14:23:07;7.00;;;3.40;;
59189;SDS011;50749;51.636;4.948;2023-03-14T14:25:39;8.98;;;3.63;;
59189;SDS011;50749;51.636;4.948;2023-03-14T14:28:57;9.75;;;3.60;;
59189;SDS011;50749;51.636;4.948;2023-03-14T14:33:41;8.80;;;3.15;;
59189;SDS011;50749;51.636;4.948;2023-03-14T14:39:09;7.35;;;3.20;;
59189;SDS011;50749;51.636;4.948;2023-03-14T14:41:41;8.40;;;3.15;;
59189;SDS011;50749;51.636;4.948;2023-03-14T14:44:11;3.63;;;2.60;;
59189;SDS011;50749;51.636;4.948;2023-03-14T14:46:39;6.32;;;2.90;;
59189;SDS011;50749;51.636;4.948;2023-03-14T14:49:06;5.63;;;2.80;;
59189;SDS011;50749;51.636;4.948;2023-03-14T14:51:43;5.05;;;2.75;;
59189;SDS011;50749;51.636;4.948;2023-03-14T14:54:14;4.25;;;2.70;;
59189;SDS011;50749;51.636;4.948;2023-03-14T14:56:46;4.90;;;2.45;;
59189;SDS011;50749;51.636;4.948;2023-03-14T14:59:21;2.90;;;2.40;;
59189;SDS011;50749;51.636;4.948;2023-03-14T15:02:00;4.53;;;2.90;;
59189;SDS011;50749;51.636;4.948;2023-03-14T15:04:31;7.10;;;4.00;;
59189;SDS011;50749;51.636;4.948;2023-03-14T15:06:57;5.38;;;2.83;;
59189;SDS011;50749;51.636;4.948;2023-03-14T15:09:23;6.20;;;2.60;;
59189;SDS011;50749;51.636;4.948;2023-03-14T15:11:49;3.97;;;2.35;;
59189;SDS011;50749;51.636;4.948;2023-03-14T15:14:15;4.88;;;2.60;;
59189;SDS011;50749;51.636;4.948;2023-03-14T15:16:41;3.55;;;2.25;;
59189;SDS011;50749;51.636;4.948;2023-03-14T15:19:12;5.68;;;2.47;;
59189;SDS011;50749;51.636;4.948;2023-03-14T15:21:46;4.63;;;2.20;;
59189;SDS011;50749;51.636;4.948;2023-03-14T15:24:12;5.57;;;2.35;;
59189;SDS011;50749;51.636;4.948;2023-03-14T15:26:38;5.47;;;2.20;;
59189;SDS011;50749;51.636;4.948;2023-03-14T15:29:04;3.33;;;1.77;;
59189;SDS011;50749;51.636;4.948;2023-03-14T15:31:33;5.00;;;2.10;;
59189;SDS011;50749;51.636;4.948;2023-03-14T15:34:00;2.95;;;1.70;;
59189;SDS011;50749;51.636;4.948;2023-03-14T15:36:28;3.60;;;2.03;;
59189;SDS011;50749;51.636;4.948;2023-03-14T15:38:56;3.80;;;2.00;;
59189;SDS011;50749;51.636;4.948;2023-03-14T15:41:24;5.45;;;2.20;;
59189;SDS011;50749;51.636;4.948;2023-03-14T15:43:50;3.00;;;1.80;;
59189;SDS011;50749;51.636;4.948;2023-03-14T15:46:17;3.55;;;2.00;;
59189;SDS011;50749;51.636;4.948;2023-03-14T15:48:44;4.00;;;1.88;;
59189;SDS011;50749;51.636;4.948;2023-03-14T15:51:11;2.63;;;1.88;;
59189;SDS011;50749;51.636;4.948;2023-03-14T15:53:37;4.20;;;1.70;;
59189;SDS011;50749;51.636;4.948;2023-03-14T15:56:04;4.95;;;2.22;;
59189;SDS011;50749;51.636;4.948;2023-03-14T15:58:30;4.47;;;2.03;;
59189;SDS011;50749;51.636;4.948;2023-03-14T16:00:59;6.68;;;2.28;;
59189;SDS011;50749;51.636;4.948;2023-03-14T16:03:27;4.18;;;2.10;;
59189;SDS011;50749;51.636;4.948;2023-03-14T16:05:55;4.50;;;2.00;;
59189;SDS011;50749;51.636;4.948;2023-03-14T16:08:23;4.07;;;2.40;;